PWSweather.com
Personal Weather Stations
Station Observations
KJ4AJP
Beautiful Downtown Gardner, Martin, TN 38237

Beautiful Downtown GardnerMartin, TN 38237

Lat: 36.358, Lon: -88.8994

Elevation: 384.3

Station Type: TP1080WC

http://weather.mambm.com/

High Low Average
Temperature 65.5°F18.6°C 47.1°F8.4°C 56.7°F13.7°C
Dew Point 59.2°F15.1°C 37.8°F3.2°C 49.4°F9.7°C
Winds 16.8 mph 27.0 kmh 0.7 mph 1.1 kmh 8.0 mph S12.9 kmh S
Wind Gusts 28.9 mph46.5 kmh 5.4 mph8.7 kmh 19.0 mph30.6 kmh
Humidity 99% 54% 78%
Pressure 29.87 in1011.5 mb 29.60 in1002.4 mb -
Precipitation 0.52 in13.2 mm - -
Hour Temp Dew Point Humidity Winds Wind Gusts Pressure Precip Precip Rate Daily Precip Total
12:00 AM 59.7°F15.4°C 53.6°F12.0°C 80% 6.9 mph SSE11.1 kmh SSE 13.6 mph21.9 kmh 29.87 in1011.5 mb 0.00 in0.0 mm 0.00 in0.0 mm 0.00 in0.0 mm
12:15 AM 59.9°F15.5°C 53.7°F12.1°C 80% 6.0 mph SSE9.7 kmh SSE 13.6 mph21.9 kmh 29.86 in1011.2 mb 0.00 in0.0 mm 0.00 in0.0 mm 0.00 in0.0 mm
12:30 AM 60.1°F15.6°C 53.9°F12.2°C 80% 5.4 mph SSE8.7 kmh SSE 15.9 mph25.6 kmh 29.85 in1010.8 mb 0.00 in0.0 mm 0.00 in0.0 mm 0.00 in0.0 mm
12:45 AM 59.9°F15.5°C 53.7°F12.1°C 80% 5.4 mph SSE8.7 kmh SSE 14.5 mph23.3 kmh 29.84 in1010.5 mb 0.00 in0.0 mm 0.00 in0.0 mm 0.00 in0.0 mm
01:00 AM 59.7°F15.4°C 53.6°F12.0°C 80% 4.5 mph SSE7.2 kmh SSE 19.7 mph31.7 kmh 29.83 in1010.2 mb 0.00 in0.0 mm 0.00 in0.0 mm 0.00 in0.0 mm
01:15 AM 59.9°F15.5°C 53.7°F12.1°C 80% 5.4 mph SE8.7 kmh SE 16.8 mph27.0 kmh 29.83 in1010.2 mb 0.00 in0.0 mm 0.00 in0.0 mm 0.00 in0.0 mm
01:30 AM 60.1°F15.6°C 53.9°F12.2°C 80% 6.0 mph SSE9.7 kmh SSE 15.9 mph25.6 kmh 29.82 in1009.8 mb 0.00 in0.0 mm 0.00 in0.0 mm 0.00 in0.0 mm
01:45 AM 60.1°F15.6°C 53.6°F12.0°C 79% 5.4 mph SE8.7 kmh SE 20.6 mph33.2 kmh 29.80 in1009.1 mb 0.00 in0.0 mm 0.00 in0.0 mm 0.00 in0.0 mm
02:00 AM 60.1°F15.6°C 53.9°F12.2°C 80% 6.0 mph SE9.7 kmh SE 15.9 mph25.6 kmh 29.80 in1009.1 mb 0.00 in0.0 mm 0.00 in0.0 mm 0.00 in0.0 mm
02:15 AM 60.1°F15.6°C 53.9°F12.2°C 80% 7.6 mph SE12.2 kmh SE 16.8 mph27.0 kmh 29.78 in1008.5 mb 0.00 in0.0 mm 0.00 in0.0 mm 0.00 in0.0 mm
02:30 AM 60.3°F15.7°C 54.1°F12.3°C 80% 6.9 mph SSE11.1 kmh SSE 15.2 mph24.5 kmh 29.78 in1008.5 mb 0.00 in0.0 mm 0.00 in0.0 mm 0.00 in0.0 mm
02:45 AM 60.6°F15.9°C 54.4°F12.4°C 80% 6.9 mph SSE11.1 kmh SSE 19.0 mph30.6 kmh 29.77 in1008.1 mb 0.00 in0.0 mm 0.00 in0.0 mm 0.00 in0.0 mm
03:00 AM 60.6°F15.9°C 54.1°F12.3°C 79% 7.6 mph SE12.2 kmh SE 17.4 mph28.0 kmh 29.76 in1007.8 mb 0.00 in0.0 mm 0.00 in0.0 mm 0.00 in0.0 mm
03:15 AM 60.8°F16.0°C 54.3°F12.4°C 79% 7.6 mph SSE12.2 kmh SSE 18.3 mph29.5 kmh 29.75 in1007.5 mb 0.00 in0.0 mm 0.00 in0.0 mm 0.00 in0.0 mm
03:30 AM 61.2°F16.2°C 54.3°F12.4°C 78% 6.9 mph SSE11.1 kmh SSE 23.5 mph37.8 kmh 29.72 in1006.4 mb 0.00 in0.0 mm 0.00 in0.0 mm 0.00 in0.0 mm
03:45 AM 61.3°F16.3°C 54.1°F12.3°C 77% 9.8 mph SE15.8 kmh SE 24.4 mph39.3 kmh 29.72 in1006.4 mb 0.00 in0.0 mm 0.00 in0.0 mm 0.00 in0.0 mm
04:00 AM 61.3°F16.3°C 53.7°F12.1°C 76% 9.2 mph SSE14.8 kmh SSE 19.7 mph31.7 kmh 29.71 in1006.1 mb 0.00 in0.0 mm 0.00 in0.0 mm 0.00 in0.0 mm
04:15 AM 61.9°F16.6°C 54.2°F12.3°C 76% 6.9 mph SSE11.1 kmh SSE 26.6 mph42.8 kmh 29.70 in1005.8 mb 0.00 in0.0 mm 0.00 in0.0 mm 0.00 in0.0 mm
04:30 AM 61.9°F16.6°C 53.9°F12.2°C 75% 6.0 mph SE9.7 kmh SE 27.3 mph43.9 kmh 29.70 in1005.8 mb 0.00 in0.0 mm 0.00 in0.0 mm 0.00 in0.0 mm
04:45 AM 61.9°F16.6°C 53.9°F12.2°C 75% 9.8 mph S15.8 kmh S 25.1 mph40.4 kmh 29.69 in1005.4 mb 0.00 in0.0 mm 0.00 in0.0 mm 0.00 in0.0 mm
05:00 AM 61.7°F16.5°C 53.7°F12.1°C 75% 6.0 mph SE9.7 kmh SE 28.2 mph45.4 kmh 29.68 in1005.1 mb 0.00 in0.0 mm 0.00 in0.0 mm 0.00 in0.0 mm
05:15 AM 60.3°F15.7°C 54.1°F12.3°C 80% 8.3 mph SSE13.4 kmh SSE 19.0 mph30.6 kmh 29.71 in1006.1 mb 0.02 in0.5 mm 0.08 in2.0 mm 0.02 in0.5 mm
05:30 AM 58.3°F14.6°C 54.4°F12.4°C 87% 12.1 mph WSW19.5 kmh WSW 21.3 mph34.3 kmh 29.81 in1009.5 mb 0.09 in2.3 mm 0.28 in7.1 mm 0.09 in2.3 mm
05:45 AM 55.8°F13.2°C 53.8°F12.1°C 93% 5.4 mph WSW8.7 kmh WSW 15.9 mph25.6 kmh 29.82 in1009.8 mb 0.22 in5.6 mm 0.52 in13.2 mm 0.22 in5.6 mm
06:00 AM 54.9°F12.7°C 54.0°F12.2°C 97% 0.7 mph SW1.1 kmh SW 9.8 mph15.8 kmh 29.81 in1009.5 mb 0.30 in7.6 mm 0.11 in2.8 mm 0.30 in7.6 mm
06:15 AM 54.5°F12.5°C 54.0°F12.2°C 98% 2.2 mph S3.5 kmh S 5.4 mph8.7 kmh 29.79 in1008.8 mb 0.30 in7.6 mm 0.00 in0.0 mm 0.32 in8.1 mm
06:30 AM 54.0°F12.2°C 53.7°F12.1°C 99% 3.1 mph SE5.0 kmh SE 6.9 mph11.1 kmh 29.78 in1008.5 mb 0.26 in6.6 mm 0.00 in0.0 mm 0.35 in8.9 mm
06:45 AM 53.6°F12.0°C 53.3°F11.8°C 99% 3.1 mph SSE5.0 kmh SSE 10.7 mph17.2 kmh 29.77 in1008.1 mb 0.18 in4.6 mm 0.00 in0.0 mm 0.40 in10.2 mm
07:00 AM 53.4°F11.9°C 53.2°F11.8°C 99% 6.0 mph SSE9.7 kmh SSE 12.1 mph19.5 kmh 29.77 in1008.1 mb 0.15 in3.8 mm 0.00 in0.0 mm 0.45 in11.4 mm
07:15 AM 53.1°F11.7°C 52.8°F11.6°C 99% 5.4 mph SSE8.7 kmh SSE 13.0 mph20.9 kmh 29.78 in1008.5 mb 0.14 in3.6 mm 0.00 in0.0 mm 0.46 in11.7 mm
07:30 AM 52.9°F11.6°C 52.6°F11.4°C 99% 7.6 mph S12.2 kmh S 13.0 mph20.9 kmh 29.80 in1009.1 mb 0.12 in3.0 mm 0.00 in0.0 mm 0.47 in11.9 mm
07:45 AM 52.7°F11.5°C 52.4°F11.3°C 99% 4.5 mph S7.2 kmh S 14.5 mph23.3 kmh 29.78 in1008.5 mb 0.08 in2.0 mm 0.00 in0.0 mm 0.48 in12.2 mm
08:00 AM 52.7°F11.5°C 52.4°F11.3°C 99% 6.9 mph SSE11.1 kmh SSE 15.2 mph24.5 kmh 29.79 in1008.8 mb 0.05 in1.3 mm 0.00 in0.0 mm 0.50 in12.7 mm
08:15 AM 52.5°F11.4°C 52.3°F11.3°C 99% 6.0 mph SSE9.7 kmh SSE 13.0 mph20.9 kmh 29.77 in1008.1 mb 0.05 in1.3 mm 0.00 in0.0 mm 0.51 in13.0 mm
08:30 AM 52.5°F11.4°C 52.3°F11.3°C 99% 3.1 mph S5.0 kmh S 13.0 mph20.9 kmh 29.76 in1007.8 mb 0.04 in1.0 mm 0.00 in0.0 mm 0.51 in13.0 mm
08:45 AM 52.3°F11.3°C 52.1°F11.2°C 99% 7.6 mph SE12.2 kmh SE 15.9 mph25.6 kmh 29.75 in1007.5 mb 0.04 in1.0 mm 0.00 in0.0 mm 0.52 in13.2 mm
09:00 AM 52.5°F11.4°C 52.3°F11.3°C 99% 5.4 mph SE8.7 kmh SE 13.0 mph20.9 kmh 29.75 in1007.5 mb 0.02 in0.5 mm 0.00 in0.0 mm 0.52 in13.2 mm
09:15 AM 52.7°F11.5°C 52.4°F11.3°C 99% 3.8 mph SE6.1 kmh SE 21.3 mph34.3 kmh 29.75 in1007.5 mb 0.01 in0.3 mm 0.00 in0.0 mm 0.52 in13.2 mm
09:30 AM 53.2°F11.8°C 53.0°F11.7°C 99% 6.0 mph SE9.7 kmh SE 17.4 mph28.0 kmh 29.75 in1007.5 mb 0.01 in0.3 mm 0.00 in0.0 mm 0.52 in13.2 mm
09:45 AM 53.4°F11.9°C 53.2°F11.8°C 99% 6.0 mph S9.7 kmh S 15.2 mph24.5 kmh 29.75 in1007.5 mb 0.00 in0.0 mm 0.00 in0.0 mm 0.52 in13.2 mm
10:00 AM 53.6°F12.0°C 53.3°F11.8°C 99% 3.8 mph SSE6.1 kmh SSE 12.1 mph19.5 kmh 29.75 in1007.5 mb 0.00 in0.0 mm 0.00 in0.0 mm 0.52 in13.2 mm
10:15 AM 54.7°F12.6°C 54.4°F12.4°C 99% 6.9 mph S11.1 kmh S 12.1 mph19.5 kmh 29.75 in1007.5 mb 0.00 in0.0 mm 0.00 in0.0 mm 0.52 in13.2 mm
10:30 AM 56.1°F13.4°C 55.9°F13.3°C 99% 6.9 mph S11.1 kmh S 12.1 mph19.5 kmh 29.75 in1007.5 mb 0.00 in0.0 mm 0.00 in0.0 mm 0.52 in13.2 mm
10:45 AM 57.7°F14.3°C 57.5°F14.2°C 99% 10.7 mph S17.2 kmh S 18.3 mph29.5 kmh 29.73 in1006.8 mb 0.00 in0.0 mm 0.00 in0.0 mm 0.52 in13.2 mm
11:00 AM 59.2°F15.1°C 58.9°F14.9°C 99% 9.2 mph S14.8 kmh S 18.3 mph29.5 kmh 29.72 in1006.4 mb 0.00 in0.0 mm 0.00 in0.0 mm 0.52 in13.2 mm
11:15 AM 60.1°F15.6°C 59.2°F15.1°C 97% 9.2 mph SSE14.8 kmh SSE 19.0 mph30.6 kmh 29.71 in1006.1 mb 0.00 in0.0 mm 0.00 in0.0 mm 0.52 in13.2 mm
11:30 AM 61.0°F16.1°C 59.0°F15.0°C 93% 8.3 mph S13.4 kmh S 22.1 mph35.6 kmh 29.70 in1005.8 mb 0.00 in0.0 mm 0.00 in0.0 mm 0.52 in13.2 mm
11:45 AM 62.1°F16.7°C 58.2°F14.6°C 87% 8.3 mph S13.4 kmh S 18.3 mph29.5 kmh 29.68 in1005.1 mb 0.00 in0.0 mm 0.00 in0.0 mm 0.52 in13.2 mm
12:00 PM 62.8°F17.1°C 57.9°F14.4°C 84% 10.7 mph S17.2 kmh S 19.0 mph30.6 kmh 29.67 in1004.7 mb 0.00 in0.0 mm 0.00 in0.0 mm 0.52 in13.2 mm
12:15 PM 63.3°F17.4°C 57.4°F14.1°C 81% 11.4 mph S18.3 kmh S 23.5 mph37.8 kmh 29.66 in1004.4 mb 0.00 in0.0 mm 0.00 in0.0 mm 0.52 in13.2 mm
12:30 PM 63.7°F17.6°C 57.1°F13.9°C 79% 11.4 mph S18.3 kmh S 19.0 mph30.6 kmh 29.64 in1003.7 mb 0.00 in0.0 mm 0.00 in0.0 mm 0.52 in13.2 mm
12:45 PM 64.4°F18.0°C 55.6°F13.1°C 73% 10.7 mph S17.2 kmh S 22.1 mph35.6 kmh 29.63 in1003.4 mb 0.00 in0.0 mm 0.00 in0.0 mm 0.52 in13.2 mm
01:00 PM 65.1°F18.4°C 55.5°F13.1°C 71% 13.6 mph S21.9 kmh S 22.8 mph36.7 kmh 29.62 in1003.0 mb 0.00 in0.0 mm 0.00 in0.0 mm 0.52 in13.2 mm
01:15 PM 64.9°F18.3°C 54.9°F12.7°C 70% 7.6 mph S12.2 kmh S 22.1 mph35.6 kmh 29.62 in1003.0 mb 0.00 in0.0 mm 0.00 in0.0 mm 0.52 in13.2 mm
01:30 PM 65.5°F18.6°C 55.5°F13.1°C 70% 6.0 mph SSW9.7 kmh SSW 22.8 mph36.7 kmh 29.60 in1002.4 mb 0.00 in0.0 mm 0.00 in0.0 mm 0.52 in13.2 mm
01:45 PM 65.5°F18.6°C 53.8°F12.1°C 66% 8.3 mph S13.4 kmh S 22.8 mph36.7 kmh 29.60 in1002.4 mb 0.00 in0.0 mm 0.00 in0.0 mm 0.52 in13.2 mm
02:00 PM 65.5°F18.6°C 51.7°F10.9°C 61% 9.8 mph SSW15.8 kmh SSW 23.5 mph37.8 kmh 29.60 in1002.4 mb 0.00 in0.0 mm 0.00 in0.0 mm 0.52 in13.2 mm
02:15 PM 64.9°F18.3°C 51.2°F10.7°C 61% 8.3 mph SSW13.4 kmh SSW 22.1 mph35.6 kmh 29.60 in1002.4 mb 0.00 in0.0 mm 0.00 in0.0 mm 0.52 in13.2 mm
02:30 PM 64.8°F18.2°C 50.6°F10.3°C 60% 15.2 mph SSW24.5 kmh SSW 28.9 mph46.5 kmh 29.60 in1002.4 mb 0.00 in0.0 mm 0.00 in0.0 mm 0.52 in13.2 mm
02:45 PM 64.6°F18.1°C 49.9°F9.9°C 59% 13.0 mph SW20.9 kmh SW 25.1 mph40.4 kmh 29.60 in1002.4 mb 0.00 in0.0 mm 0.00 in0.0 mm 0.52 in13.2 mm
03:00 PM 64.2°F17.9°C 49.2°F9.6°C 58% 9.2 mph SW14.8 kmh SW 22.8 mph36.7 kmh 29.61 in1002.7 mb 0.00 in0.0 mm 0.00 in0.0 mm 0.52 in13.2 mm
03:15 PM 63.9°F17.7°C 48.3°F9.1°C 57% 7.6 mph SW12.2 kmh SW 23.5 mph37.8 kmh 29.61 in1002.7 mb 0.00 in0.0 mm 0.00 in0.0 mm 0.52 in13.2 mm
03:30 PM 63.3°F17.4°C 47.4°F8.6°C 56% 10.7 mph SW17.2 kmh SW 23.5 mph37.8 kmh 29.61 in1002.7 mb 0.00 in0.0 mm 0.00 in0.0 mm 0.52 in13.2 mm
03:45 PM 62.8°F17.1°C 46.9°F8.3°C 56% 6.9 mph SSW11.1 kmh SSW 22.8 mph36.7 kmh 29.61 in1002.7 mb 0.00 in0.0 mm 0.00 in0.0 mm 0.52 in13.2 mm
04:00 PM 62.2°F16.8°C 46.4°F8.0°C 56% 8.3 mph SW13.4 kmh SW 19.0 mph30.6 kmh 29.62 in1003.0 mb 0.00 in0.0 mm 0.00 in0.0 mm 0.52 in13.2 mm
04:15 PM 61.5°F16.4°C 45.7°F7.6°C 56% 10.7 mph SW17.2 kmh SW 18.3 mph29.5 kmh 29.63 in1003.4 mb 0.00 in0.0 mm 0.00 in0.0 mm 0.52 in13.2 mm
04:30 PM 60.6°F15.9°C 43.9°F6.6°C 54% 13.6 mph SW21.9 kmh SW 25.9 mph41.7 kmh 29.63 in1003.4 mb 0.00 in0.0 mm 0.00 in0.0 mm 0.52 in13.2 mm
04:45 PM 59.0°F15.0°C 43.8°F6.6°C 57% 16.8 mph W27.0 kmh W 24.4 mph39.3 kmh 29.65 in1004.1 mb 0.00 in0.0 mm 0.00 in0.0 mm 0.52 in13.2 mm
05:00 PM 57.0°F13.9°C 42.8°F6.0°C 59% 13.0 mph SW20.9 kmh SW 21.3 mph34.3 kmh 29.66 in1004.4 mb 0.00 in0.0 mm 0.00 in0.0 mm 0.52 in13.2 mm
05:15 PM 55.8°F13.2°C 43.4°F6.3°C 63% 10.7 mph SW17.2 kmh SW 22.8 mph36.7 kmh 29.67 in1004.7 mb 0.00 in0.0 mm 0.00 in0.0 mm 0.52 in13.2 mm
05:30 PM 54.9°F12.7°C 42.9°F6.1°C 64% 9.2 mph WSW14.8 kmh WSW 26.6 mph42.8 kmh 29.67 in1004.7 mb 0.00 in0.0 mm 0.00 in0.0 mm 0.52 in13.2 mm
05:45 PM 54.1°F12.3°C 42.6°F5.9°C 65% 10.7 mph SW17.2 kmh SW 24.4 mph39.3 kmh 29.69 in1005.4 mb 0.00 in0.0 mm 0.00 in0.0 mm 0.52 in13.2 mm
06:00 PM 53.6°F12.0°C 42.5°F5.8°C 66% 6.9 mph WSW11.1 kmh WSW 22.1 mph35.6 kmh 29.70 in1005.8 mb 0.00 in0.0 mm 0.00 in0.0 mm 0.52 in13.2 mm
06:15 PM 53.1°F11.7°C 42.0°F5.6°C 66% 9.8 mph WSW15.8 kmh WSW 24.4 mph39.3 kmh 29.70 in1005.8 mb 0.00 in0.0 mm 0.00 in0.0 mm 0.52 in13.2 mm
06:30 PM 52.5°F11.4°C 41.9°F5.5°C 67% 6.9 mph SW11.1 kmh SW 23.5 mph37.8 kmh 29.72 in1006.4 mb 0.00 in0.0 mm 0.00 in0.0 mm 0.52 in13.2 mm
06:45 PM 52.2°F11.2°C 41.5°F5.3°C 67% 8.3 mph SW13.4 kmh SW 23.5 mph37.8 kmh 29.71 in1006.1 mb 0.00 in0.0 mm 0.00 in0.0 mm 0.52 in13.2 mm
07:00 PM 51.8°F11.0°C 41.2°F5.1°C 67% 6.0 mph SW9.7 kmh SW 22.8 mph36.7 kmh 29.72 in1006.4 mb 0.00 in0.0 mm 0.00 in0.0 mm 0.52 in13.2 mm
07:15 PM 51.3°F10.7°C 41.1°F5.1°C 68% 6.9 mph SW11.1 kmh SW 19.0 mph30.6 kmh 29.73 in1006.8 mb 0.00 in0.0 mm 0.00 in0.0 mm 0.52 in13.2 mm
07:30 PM 51.1°F10.6°C 41.3°F5.2°C 69% 9.8 mph SW15.8 kmh SW 19.7 mph31.7 kmh 29.73 in1006.8 mb 0.00 in0.0 mm 0.00 in0.0 mm 0.52 in13.2 mm
07:45 PM 50.5°F10.3°C 40.8°F4.9°C 69% 13.0 mph WSW20.9 kmh WSW 27.3 mph43.9 kmh 29.74 in1007.1 mb 0.00 in0.0 mm 0.00 in0.0 mm 0.52 in13.2 mm
08:00 PM 50.0°F10.0°C 39.9°F4.4°C 68% 8.3 mph WSW13.4 kmh WSW 23.5 mph37.8 kmh 29.75 in1007.5 mb 0.00 in0.0 mm 0.00 in0.0 mm 0.52 in13.2 mm
08:15 PM 49.3°F9.6°C 39.6°F4.2°C 69% 6.9 mph WSW11.1 kmh WSW 20.6 mph33.2 kmh 29.75 in1007.5 mb 0.00 in0.0 mm 0.00 in0.0 mm 0.52 in13.2 mm
08:30 PM 48.7°F9.3°C 39.0°F3.9°C 69% 5.4 mph WSW8.7 kmh WSW 20.6 mph33.2 kmh 29.76 in1007.8 mb 0.00 in0.0 mm 0.00 in0.0 mm 0.52 in13.2 mm
08:45 PM 48.6°F9.2°C 38.9°F3.8°C 69% 7.6 mph SW12.2 kmh SW 15.2 mph24.5 kmh 29.75 in1007.5 mb 0.00 in0.0 mm 0.00 in0.0 mm 0.52 in13.2 mm
09:00 PM 48.4°F9.1°C 39.1°F3.9°C 70% 5.4 mph SW8.7 kmh SW 16.8 mph27.0 kmh 29.75 in1007.5 mb 0.00 in0.0 mm 0.00 in0.0 mm 0.52 in13.2 mm
09:15 PM 48.2°F9.0°C 38.9°F3.8°C 70% 4.5 mph SSW7.2 kmh SSW 13.6 mph21.9 kmh 29.75 in1007.5 mb 0.00 in0.0 mm 0.00 in0.0 mm 0.52 in13.2 mm
09:30 PM 48.0°F8.9°C 39.1°F3.9°C 71% 13.6 mph SW21.9 kmh SW 19.7 mph31.7 kmh 29.74 in1007.1 mb 0.00 in0.0 mm 0.00 in0.0 mm 0.52 in13.2 mm
09:45 PM 47.8°F8.8°C 39.3°F4.1°C 72% 5.4 mph SW8.7 kmh SW 17.4 mph28.0 kmh 29.75 in1007.5 mb 0.00 in0.0 mm 0.00 in0.0 mm 0.52 in13.2 mm
10:00 PM 47.8°F8.8°C 38.9°F3.8°C 71% 9.8 mph SW15.8 kmh SW 24.4 mph39.3 kmh 29.75 in1007.5 mb 0.00 in0.0 mm 0.00 in0.0 mm 0.52 in13.2 mm
10:15 PM 48.2°F9.0°C 38.1°F3.4°C 68% 12.1 mph SW19.5 kmh SW 24.4 mph39.3 kmh 29.75 in1007.5 mb 0.00 in0.0 mm 0.00 in0.0 mm 0.52 in13.2 mm
10:30 PM 48.2°F9.0°C 37.8°F3.2°C 67% 9.2 mph WSW14.8 kmh WSW 28.9 mph46.5 kmh 29.75 in1007.5 mb 0.00 in0.0 mm 0.00 in0.0 mm 0.52 in13.2 mm
10:45 PM 48.0°F8.9°C 38.0°F3.3°C 68% 10.7 mph WSW17.2 kmh WSW 21.3 mph34.3 kmh 29.75 in1007.5 mb 0.00 in0.0 mm 0.00 in0.0 mm 0.52 in13.2 mm
11:00 PM 47.8°F8.8°C 38.2°F3.4°C 69% 9.2 mph SW14.8 kmh SW 19.7 mph31.7 kmh 29.75 in1007.5 mb 0.00 in0.0 mm 0.00 in0.0 mm 0.52 in13.2 mm
11:15 PM 47.5°F8.6°C 38.2°F3.4°C 70% 13.0 mph WSW20.9 kmh WSW 18.3 mph29.5 kmh 29.76 in1007.8 mb 0.00 in0.0 mm 0.00 in0.0 mm 0.52 in13.2 mm
11:30 PM 47.3°F8.5°C 38.0°F3.3°C 70% 8.3 mph SW13.4 kmh SW 21.3 mph34.3 kmh 29.75 in1007.5 mb 0.00 in0.0 mm 0.00 in0.0 mm 0.52 in13.2 mm
11:45 PM 47.1°F8.4°C 37.8°F3.2°C 70% 6.9 mph SW11.1 kmh SW 16.8 mph27.0 kmh 29.76 in1007.8 mb 0.00 in0.0 mm 0.00 in0.0 mm 0.52 in13.2 mm